createdAt,value
2018-05-15T00:00:32.245Z,2.00
2018-05-15T00:03:00.444Z,1.90
2018-05-15T00:05:28.647Z,1.67
2018-05-15T00:07:56.733Z,2.00
2018-05-15T00:10:24.923Z,2.00
2018-05-15T00:12:53.125Z,1.75
2018-05-15T00:15:21.324Z,2.35
2018-05-15T00:17:49.407Z,2.12
2018-05-15T00:20:17.615Z,1.80
2018-05-15T00:22:45.700Z,1.70
2018-05-15T00:25:13.904Z,1.80
2018-05-15T00:27:41.977Z,1.98
2018-05-15T00:30:10.495Z,1.85
2018-05-15T00:32:38.586Z,2.00
2018-05-15T00:35:06.697Z,2.00
2018-05-15T00:37:34.966Z,2.22
2018-05-15T00:40:03.263Z,1.60
2018-05-15T00:42:31.469Z,1.85
2018-05-15T00:44:59.645Z,1.70
2018-05-15T00:47:27.845Z,1.83
2018-05-15T00:49:56.048Z,1.83
2018-05-15T00:52:24.241Z,2.00
2018-05-15T00:54:52.435Z,1.40
2018-05-15T00:57:20.727Z,1.92
2018-05-15T00:59:48.923Z,1.90
2018-05-15T01:02:17.118Z,2.08
2018-05-15T01:04:45.307Z,1.70
2018-05-15T01:07:13.393Z,2.20
2018-05-15T01:09:41.808Z,2.20
2018-05-15T01:12:10.194Z,2.90
2018-05-15T01:14:38.598Z,2.80
2018-05-15T01:17:06.606Z,2.25
2018-05-15T01:19:34.892Z,1.98
2018-05-15T01:22:03.175Z,1.73
2018-05-15T01:24:31.270Z,1.33
2018-05-15T01:26:59.294Z,1.40
2018-05-15T01:29:27.455Z,1.60
2018-05-15T01:31:56.473Z,1.27
2018-05-15T01:34:24.567Z,1.65
2018-05-15T01:36:52.763Z,1.40
2018-05-15T01:39:21.863Z,1.25
2018-05-15T01:41:50.071Z,1.25
2018-05-15T01:44:18.152Z,1.05
2018-05-15T01:46:46.349Z,1.55
2018-05-15T01:49:14.551Z,1.85
2018-05-15T01:51:42.951Z,1.70
2018-05-15T01:54:11.244Z,1.55
2018-05-15T01:56:39.374Z,1.27
2018-05-15T01:59:07.464Z,1.58
2018-05-15T02:01:35.721Z,1.23
2018-05-15T02:04:04.231Z,1.30
2018-05-15T02:06:32.419Z,1.12
2018-05-15T02:09:00.612Z,1.37
2018-05-15T02:11:28.810Z,1.45
2018-05-15T02:13:56.892Z,1.30
2018-05-15T02:16:25.090Z,1.60
2018-05-15T02:18:53.289Z,1.40
2018-05-15T02:21:21.490Z,1.42
2018-05-15T02:23:49.688Z,1.55
2018-05-15T02:26:18.082Z,1.15
2018-05-15T02:28:46.377Z,1.20
2018-05-15T02:31:14.782Z,1.33
2018-05-15T02:33:42.857Z,1.30
2018-05-15T02:36:11.168Z,1.60
2018-05-15T02:38:39.422Z,1.10
2018-05-15T02:41:07.642Z,1.30
2018-05-15T02:43:35.738Z,1.30
2018-05-15T02:46:04.660Z,1.40
2018-05-15T02:48:32.745Z,1.00
2018-05-15T02:51:00.946Z,1.50
2018-05-15T02:53:29.021Z,1.25
2018-05-15T02:55:57.221Z,1.45
2018-05-15T02:58:25.419Z,1.70
2018-05-15T03:00:53.624Z,1.27
2018-05-15T03:03:21.912Z,1.70
2018-05-15T03:05:50.109Z,1.33
2018-05-15T03:08:18.198Z,1.90
2018-05-15T03:10:46.495Z,1.90
2018-05-15T03:13:14.912Z,1.45
2018-05-15T03:15:43.202Z,2.20
2018-05-15T03:18:11.489Z,1.62
2018-05-15T03:20:39.744Z,1.90
2018-05-15T03:23:07.983Z,1.92
2018-05-15T03:25:36.272Z,2.08
2018-05-15T03:28:04.483Z,1.95
2018-05-15T03:30:32.875Z,2.33
2018-05-15T03:33:01.168Z,2.22
2018-05-15T03:35:29.365Z,1.85
2018-05-15T03:37:57.459Z,2.08
2018-05-15T03:40:25.543Z,2.00
2018-05-15T03:42:53.730Z,2.30
2018-05-15T03:45:21.823Z,1.87
2018-05-15T03:47:50.635Z,2.37
2018-05-15T03:50:18.842Z,1.95
2018-05-15T03:52:47.123Z,2.30
2018-05-15T03:55:15.527Z,2.35
2018-05-15T03:57:43.829Z,2.55
2018-05-15T04:00:11.929Z,2.05
2018-05-15T04:02:40.142Z,2.00
2018-05-15T04:05:08.503Z,2.15
2018-05-15T04:07:36.696Z,2.37
2018-05-15T04:10:04.789Z,2.12
2018-05-15T04:12:32.980Z,1.80
2018-05-15T04:15:01.084Z,2.10
2018-05-15T04:17:29.281Z,8.70
2018-05-15T04:19:57.370Z,5.70
2018-05-15T04:22:25.601Z,2.50
2018-05-15T04:24:53.766Z,2.35
2018-05-15T04:27:21.953Z,1.83
2018-05-15T04:29:50.038Z,1.62
2018-05-15T04:32:18.448Z,1.58
2018-05-15T04:34:46.629Z,1.70
2018-05-15T04:37:14.945Z,1.90
2018-05-15T04:39:43.232Z,1.27
2018-05-15T04:42:11.536Z,1.70
2018-05-15T04:44:39.534Z,2.50
2018-05-15T04:47:07.608Z,1.45
2018-05-15T04:49:35.808Z,1.50
2018-05-15T04:52:04.077Z,1.17
2018-05-15T04:54:32.497Z,0.90
2018-05-15T04:57:00.685Z,1.15
2018-05-15T04:59:28.894Z,1.05
2018-05-15T05:01:57.088Z,0.60
2018-05-15T05:04:25.179Z,0.60
2018-05-15T05:06:53.366Z,0.90
2018-05-15T05:09:21.557Z,1.15
2018-05-15T05:11:49.870Z,0.82
2018-05-15T05:14:18.050Z,1.00
2018-05-15T05:16:46.352Z,0.80
2018-05-15T05:19:14.553Z,0.77
2018-05-15T05:21:42.833Z,0.60
2018-05-15T05:24:11.035Z,0.80
2018-05-15T05:26:39.152Z,0.52
2018-05-15T05:29:07.165Z,1.33
2018-05-15T05:31:35.424Z,0.90
2018-05-15T05:34:03.407Z,0.60
2018-05-15T05:36:31.599Z,0.60
2018-05-15T05:38:59.783Z,0.85
2018-05-15T05:41:27.980Z,0.60
2018-05-15T05:43:56.078Z,0.65
2018-05-15T05:46:24.357Z,0.80
2018-05-15T05:48:52.466Z,0.85
2018-05-15T05:51:20.773Z,0.80
2018-05-15T05:53:48.903Z,0.82
2018-05-15T05:56:17.148Z,0.80
2018-05-15T05:58:45.352Z,0.70
2018-05-15T06:01:13.538Z,0.73
2018-05-15T06:03:41.737Z,1.30
2018-05-15T06:06:09.819Z,1.10
2018-05-15T06:08:38.032Z,1.15
2018-05-15T06:11:06.148Z,1.30
2018-05-15T06:13:34.313Z,1.60
2018-05-15T06:16:02.411Z,0.98
2018-05-15T06:18:30.604Z,1.20
2018-05-15T06:20:58.900Z,1.20
2018-05-15T06:23:27.102Z,1.17
2018-05-15T06:25:56.098Z,1.02
2018-05-15T06:28:24.297Z,1.33
2018-05-15T06:30:52.702Z,0.95
2018-05-15T06:33:20.983Z,0.77
2018-05-15T06:35:49.177Z,0.90
2018-05-15T06:38:17.390Z,0.70
2018-05-15T06:40:45.564Z,1.02
2018-05-15T06:43:13.772Z,1.00
2018-05-15T06:45:42.168Z,1.70
2018-05-15T06:48:10.370Z,1.40
2018-05-15T06:50:38.551Z,1.60
2018-05-15T06:53:06.605Z,1.30
2018-05-15T06:55:34.629Z,1.15
2018-05-15T06:58:02.838Z,1.35
2018-05-15T07:00:30.921Z,1.17
2018-05-15T07:02:59.123Z,0.60
2018-05-15T07:05:27.522Z,0.40
2018-05-15T07:07:55.709Z,0.50
2018-05-15T07:10:23.811Z,0.60
2018-05-15T07:12:52.109Z,0.55
2018-05-15T07:15:20.312Z,0.45
2018-05-15T07:17:48.595Z,0.98
2018-05-15T07:20:16.680Z,0.88
2018-05-15T07:22:44.879Z,0.90
2018-05-15T07:25:12.889Z,0.80
2018-05-15T07:27:41.162Z,0.70
2018-05-15T07:30:09.345Z,0.98
2018-05-15T07:32:37.547Z,1.02
2018-05-15T07:35:05.650Z,1.10
2018-05-15T07:37:33.775Z,0.50
2018-05-15T07:40:01.947Z,0.60
2018-05-15T07:42:30.429Z,0.55
2018-05-15T07:44:58.630Z,0.37
2018-05-15T07:47:27.347Z,1.08
2018-05-15T07:49:55.537Z,0.60
2018-05-15T07:52:23.822Z,0.80
2018-05-15T07:54:52.021Z,0.37
2018-05-15T07:57:20.306Z,0.45
2018-05-15T07:59:48.725Z,0.82
2018-05-15T08:02:16.812Z,0.50
2018-05-15T08:04:44.902Z,0.60
2018-05-15T08:07:12.995Z,0.60
2018-05-15T08:09:41.183Z,0.43
2018-05-15T08:12:09.273Z,1.62
2018-05-15T08:14:37.481Z,0.73
2018-05-15T08:17:05.664Z,0.60
2018-05-15T08:19:33.745Z,0.70
2018-05-15T08:22:01.942Z,1.02
2018-05-15T08:24:30.246Z,1.00
2018-05-15T08:26:58.450Z,0.70
2018-05-15T08:29:26.742Z,0.55
2018-05-15T08:31:55.142Z,0.90
2018-05-15T08:34:23.550Z,0.60
2018-05-15T08:36:51.829Z,0.60
2018-05-15T08:39:20.035Z,0.57
2018-05-15T08:41:48.423Z,0.70
2018-05-15T08:44:16.630Z,0.70
2018-05-15T08:46:44.820Z,1.10
2018-05-15T08:49:13.122Z,0.80
2018-05-15T08:51:41.514Z,0.60
2018-05-15T08:54:09.706Z,0.52
2018-05-15T08:56:37.917Z,0.57
2018-05-15T08:59:06.100Z,0.55
2018-05-15T09:01:34.083Z,0.60
2018-05-15T09:04:02.284Z,0.60
2018-05-15T09:06:30.474Z,0.40
2018-05-15T09:08:58.770Z,0.90
2018-05-15T09:11:26.963Z,0.40
2018-05-15T09:13:55.361Z,0.68
2018-05-15T09:16:24.063Z,0.50
2018-05-15T09:18:52.366Z,1.00
2018-05-15T09:21:20.559Z,0.40
2018-05-15T09:23:48.757Z,0.57
2018-05-15T09:26:16.854Z,0.70
2018-05-15T09:28:45.036Z,0.70
2018-05-15T09:31:13.229Z,0.55
2018-05-15T09:33:41.419Z,0.70
2018-05-15T09:36:09.520Z,0.70
2018-05-15T09:38:37.707Z,0.70
2018-05-15T09:41:05.916Z,0.60
2018-05-15T09:43:34.002Z,0.60
2018-05-15T09:46:02.102Z,0.68
2018-05-15T09:48:30.139Z,0.70
2018-05-15T09:50:58.337Z,0.50
2018-05-15T09:53:26.687Z,0.50
2018-05-15T09:55:54.970Z,0.55
2018-05-15T09:58:23.401Z,0.60
2018-05-15T10:00:51.664Z,0.68
2018-05-15T10:03:20.791Z,0.65
2018-05-15T10:05:48.987Z,1.00
2018-05-15T10:08:17.078Z,0.40
2018-05-15T10:10:45.359Z,0.73
2018-05-15T10:13:13.463Z,0.52
2018-05-15T10:15:41.663Z,0.52
2018-05-15T10:18:09.646Z,0.80
2018-05-15T10:20:37.843Z,0.82
2018-05-15T10:23:05.823Z,0.50
2018-05-15T10:25:33.884Z,0.60
2018-05-15T10:28:02.008Z,0.60
2018-05-15T10:30:30.203Z,0.50
2018-05-15T10:32:58.297Z,0.43
2018-05-15T10:35:26.502Z,0.80
2018-05-15T10:37:54.683Z,0.30
2018-05-15T10:40:22.885Z,0.60
2018-05-15T10:42:51.185Z,0.82
2018-05-15T10:45:19.265Z,0.55
2018-05-15T10:47:47.465Z,0.40
2018-05-15T10:50:15.666Z,0.80
2018-05-15T10:52:43.753Z,0.70
2018-05-15T10:55:11.943Z,0.45
2018-05-15T10:57:40.139Z,0.80
2018-05-15T11:00:08.336Z,0.57
2018-05-15T11:02:36.426Z,0.32
2018-05-15T11:05:04.625Z,0.62
2018-05-15T11:07:32.726Z,0.50
2018-05-15T11:10:01.028Z,0.80
2018-05-15T11:12:29.196Z,0.70
2018-05-15T11:14:57.509Z,0.60
2018-05-15T11:17:25.704Z,0.50
2018-05-15T11:19:53.899Z,0.55
2018-05-15T11:22:22.081Z,1.90
2018-05-15T11:24:50.184Z,0.80
2018-05-15T11:27:18.400Z,1.40
2018-05-15T11:29:46.660Z,0.80
2018-05-15T11:32:14.764Z,0.57
2018-05-15T11:34:42.857Z,0.50
2018-05-15T11:37:11.051Z,0.60
2018-05-15T11:39:39.145Z,1.50
2018-05-15T11:42:07.342Z,0.85
2018-05-15T11:44:35.528Z,0.70
2018-05-15T11:47:03.827Z,0.60
2018-05-15T11:49:32.641Z,0.47
2018-05-15T11:52:01.251Z,0.50
2018-05-15T11:54:28.805Z,0.73
2018-05-15T11:56:56.907Z,0.50
2018-05-15T11:59:25.207Z,0.68
2018-05-15T12:01:53.287Z,0.60
2018-05-15T12:04:21.386Z,0.57
2018-05-15T12:06:49.488Z,0.75
2018-05-15T12:09:17.571Z,0.60
2018-05-15T12:11:45.658Z,1.00
2018-05-15T12:14:13.759Z,0.52
2018-05-15T12:16:41.852Z,0.50
2018-05-15T12:19:10.151Z,0.70
2018-05-15T12:21:38.336Z,0.80
2018-05-15T12:24:06.432Z,0.70
2018-05-15T12:26:34.631Z,0.50
2018-05-15T12:29:02.711Z,0.70
2018-05-15T12:31:30.820Z,0.62
2018-05-15T12:33:58.903Z,0.95
2018-05-15T12:36:27.000Z,0.95
2018-05-15T12:38:55.027Z,0.55
2018-05-15T12:41:23.201Z,0.57
2018-05-15T12:43:51.472Z,0.60
2018-05-15T12:46:19.681Z,0.60
2018-05-15T12:48:47.783Z,0.70
2018-05-15T12:51:16.073Z,0.70
2018-05-15T12:53:44.354Z,0.70
2018-05-15T12:56:12.653Z,0.82
2018-05-15T12:58:40.961Z,0.52
2018-05-15T13:01:09.153Z,0.50
2018-05-15T13:03:37.232Z,0.70
2018-05-15T13:06:05.534Z,0.52
2018-05-15T13:08:33.512Z,1.15
2018-05-15T13:11:01.713Z,0.88
2018-05-15T13:13:29.814Z,1.10
2018-05-15T13:15:57.993Z,1.00
2018-05-15T13:18:26.233Z,0.90
2018-05-15T13:20:54.233Z,0.40
2018-05-15T13:23:22.213Z,0.50
2018-05-15T13:25:50.374Z,0.85
2018-05-15T13:28:18.456Z,0.50
2018-05-15T13:30:46.653Z,0.57
2018-05-15T13:33:14.755Z,0.70
2018-05-15T13:35:42.955Z,0.45
2018-05-15T13:38:11.133Z,0.50
2018-05-15T13:40:39.334Z,0.50
2018-05-15T13:43:07.534Z,0.98
2018-05-15T13:45:35.733Z,0.80
2018-05-15T13:48:03.815Z,0.40
2018-05-15T13:50:32.050Z,0.50
2018-05-15T13:53:00.214Z,0.85
2018-05-15T13:55:28.502Z,0.55
2018-05-15T13:57:56.707Z,0.80
2018-05-15T14:00:24.885Z,0.60
2018-05-15T14:02:53.084Z,0.50
2018-05-15T14:05:21.203Z,0.52
2018-05-15T14:07:49.263Z,2.05
2018-05-15T14:10:17.455Z,0.50
2018-05-15T14:12:45.660Z,0.73
2018-05-15T14:15:13.852Z,0.40
2018-05-15T14:17:41.950Z,0.50
2018-05-15T14:20:10.134Z,0.40
2018-05-15T14:22:38.431Z,0.50
2018-05-15T14:25:06.724Z,0.62
2018-05-15T14:27:34.942Z,0.57
2018-05-15T14:30:03.114Z,0.50
2018-05-15T14:32:31.425Z,0.73
2018-05-15T14:34:59.811Z,0.40
2018-05-15T14:37:28.934Z,0.55
2018-05-15T14:39:57.116Z,1.25
2018-05-15T14:42:25.318Z,0.57
2018-05-15T14:44:53.513Z,0.50
2018-05-15T14:47:21.598Z,0.68
2018-05-15T14:49:49.686Z,0.50
2018-05-15T14:52:17.890Z,0.32
2018-05-15T14:54:46.074Z,0.68
2018-05-15T14:57:14.306Z,0.70
2018-05-15T14:59:42.481Z,0.50
2018-05-15T15:02:10.673Z,0.88
2018-05-15T15:04:38.972Z,1.02
2018-05-15T15:07:07.071Z,0.65
2018-05-15T15:09:35.342Z,0.52
2018-05-15T15:12:03.644Z,1.15
2018-05-15T15:14:31.944Z,0.82
2018-05-15T15:17:00.237Z,1.00
2018-05-15T15:19:28.440Z,0.68
2018-05-15T15:21:56.627Z,0.52
2018-05-15T15:24:24.726Z,0.85
2018-05-15T15:26:52.925Z,0.80
2018-05-15T15:29:21.066Z,0.80
2018-05-15T15:31:49.174Z,0.60
2018-05-15T15:34:17.289Z,0.62
2018-05-15T15:36:45.490Z,0.52
2018-05-15T15:39:13.690Z,0.45
2018-05-15T15:41:41.989Z,0.47
2018-05-15T15:44:10.182Z,0.43
2018-05-15T15:46:38.369Z,0.60
2018-05-15T15:49:06.676Z,0.73
2018-05-15T15:51:34.968Z,0.70
2018-05-15T15:54:03.363Z,0.60
2018-05-15T15:56:31.549Z,0.60
2018-05-15T15:58:59.860Z,0.57
2018-05-15T16:01:28.153Z,0.40
2018-05-15T16:03:56.417Z,0.60
2018-05-15T16:06:24.637Z,0.82
2018-05-15T16:08:52.738Z,0.50
2018-05-15T16:11:20.923Z,0.65
2018-05-15T16:13:48.924Z,0.50
2018-05-15T16:16:17.102Z,0.60
2018-05-15T16:18:45.196Z,0.40
2018-05-15T16:21:13.409Z,0.50
2018-05-15T16:23:41.689Z,0.57
2018-05-15T16:26:09.984Z,0.62
2018-05-15T16:28:38.118Z,0.80
2018-05-15T16:31:06.370Z,1.02
2018-05-15T16:33:34.568Z,0.50
2018-05-15T16:36:02.871Z,0.80
2018-05-15T16:38:30.963Z,0.60
2018-05-15T16:40:59.984Z,1.20
2018-05-15T16:43:28.143Z,0.80
2018-05-15T16:45:56.164Z,0.80
2018-05-15T16:48:24.363Z,0.70
2018-05-15T16:50:52.542Z,0.90
2018-05-15T16:53:20.769Z,0.80
2018-05-15T16:55:48.762Z,0.75
2018-05-15T16:58:17.243Z,0.77
2018-05-15T17:00:45.324Z,0.70
2018-05-15T17:03:13.526Z,0.52
2018-05-15T17:05:41.606Z,0.60
2018-05-15T17:08:09.888Z,1.00
2018-05-15T17:10:38.073Z,1.08
2018-05-15T17:13:06.294Z,1.20
2018-05-15T17:15:34.590Z,0.80
2018-05-15T17:18:02.788Z,0.90
2018-05-15T17:20:30.887Z,1.00
2018-05-15T17:22:59.285Z,0.77
2018-05-15T17:25:27.590Z,1.10
2018-05-15T17:27:55.875Z,0.65
2018-05-15T17:30:23.977Z,3.60
2018-05-15T17:32:52.169Z,1.35
2018-05-15T17:35:20.362Z,0.70
2018-05-15T17:37:48.444Z,0.90
2018-05-15T17:40:16.430Z,1.12
2018-05-15T17:42:44.722Z,1.02
2018-05-15T17:45:12.815Z,0.95
2018-05-15T17:47:41.129Z,1.10
2018-05-15T17:50:09.227Z,0.82
2018-05-15T17:52:37.405Z,0.82
2018-05-15T17:55:05.493Z,1.05
2018-05-15T17:57:33.687Z,1.10
2018-05-15T18:00:02.862Z,1.10
2018-05-15T18:02:31.011Z,1.50
2018-05-15T18:04:59.311Z,1.42
2018-05-15T18:07:27.499Z,1.20
2018-05-15T18:09:55.591Z,1.62
2018-05-15T18:12:23.784Z,1.60
2018-05-15T18:14:51.975Z,2.12
2018-05-15T18:17:20.162Z,2.20
2018-05-15T18:19:48.203Z,1.70
2018-05-15T18:22:16.185Z,2.50
2018-05-15T18:24:44.343Z,2.30
2018-05-15T18:27:12.644Z,2.10
2018-05-15T18:29:40.746Z,2.78
2018-05-15T18:32:08.925Z,2.28
2018-05-15T18:34:37.025Z,2.40
2018-05-15T18:37:05.204Z,2.65
2018-05-15T18:39:33.304Z,2.80
2018-05-15T18:42:01.507Z,2.33
2018-05-15T18:44:29.704Z,3.03
2018-05-15T18:46:57.786Z,2.83
2018-05-15T18:49:25.984Z,2.30
2018-05-15T18:51:54.269Z,2.83
2018-05-15T18:54:22.363Z,2.40
2018-05-15T18:56:50.463Z,2.20
2018-05-15T18:59:18.666Z,2.20
2018-05-15T19:01:46.756Z,2.75
2018-05-15T19:04:14.934Z,2.62
2018-05-15T19:06:43.010Z,2.30
2018-05-15T19:09:11.234Z,2.50
2018-05-15T19:11:39.334Z,2.42
2018-05-15T19:14:07.626Z,2.12
2018-05-15T19:16:35.806Z,3.00
2018-05-15T19:19:04.003Z,3.25
2018-05-15T19:21:32.104Z,2.87
2018-05-15T19:24:00.289Z,2.50
2018-05-15T19:26:28.496Z,1.58
2018-05-15T19:28:56.695Z,1.27
2018-05-15T19:31:24.880Z,1.90
2018-05-15T19:33:53.068Z,2.12
2018-05-15T19:36:21.267Z,2.10
2018-05-15T19:38:49.466Z,2.00
2018-05-15T19:41:17.558Z,1.70
2018-05-15T19:43:45.746Z,2.42
2018-05-15T19:46:13.949Z,2.05
2018-05-15T19:48:42.067Z,2.35
2018-05-15T19:51:10.067Z,2.10
2018-05-15T19:53:38.529Z,1.90
2018-05-15T19:56:06.720Z,2.00
2018-05-15T19:58:34.913Z,2.30
2018-05-15T20:01:03.013Z,1.92
2018-05-15T20:03:31.518Z,2.25
2018-05-15T20:05:59.597Z,2.35
2018-05-15T20:08:27.797Z,1.87
2018-05-15T20:10:55.887Z,2.03
2018-05-15T20:13:24.086Z,1.77
2018-05-15T20:15:52.286Z,2.92
2018-05-15T20:18:20.578Z,2.10
2018-05-15T20:20:48.659Z,1.83
2018-05-15T20:23:18.075Z,1.80
2018-05-15T20:25:46.477Z,2.10
2018-05-15T20:28:14.677Z,1.65
2018-05-15T20:30:42.698Z,1.83
2018-05-15T20:33:10.974Z,1.80
2018-05-15T20:35:39.269Z,1.65
2018-05-15T20:38:07.454Z,1.60
2018-05-15T20:40:36.368Z,1.80
2018-05-15T20:43:04.553Z,2.10
2018-05-15T20:45:32.752Z,2.22
2018-05-15T20:48:00.960Z,1.70
2018-05-15T20:50:29.033Z,1.42
2018-05-15T20:52:57.732Z,1.62
2018-05-15T20:55:25.933Z,1.52
2018-05-15T20:57:54.450Z,1.30
2018-05-15T21:00:22.643Z,1.20
2018-05-15T21:02:50.834Z,1.87
2018-05-15T21:05:19.018Z,1.00
2018-05-15T21:07:47.215Z,1.62
2018-05-15T21:10:15.342Z,1.77
2018-05-15T21:12:43.601Z,1.90
2018-05-15T21:15:11.855Z,1.48
2018-05-15T21:17:40.102Z,1.55
2018-05-15T21:20:08.296Z,1.12
2018-05-15T21:22:36.388Z,1.40
2018-05-15T21:25:04.586Z,1.10
2018-05-15T21:27:32.676Z,1.73
2018-05-15T21:30:00.863Z,1.50
2018-05-15T21:32:28.952Z,1.60
2018-05-15T21:34:57.148Z,1.67
2018-05-15T21:37:25.252Z,1.23
2018-05-15T21:39:53.533Z,1.27
2018-05-15T21:42:21.932Z,1.30
2018-05-15T21:44:50.243Z,1.60
2018-05-15T21:47:18.339Z,1.35
2018-05-15T21:49:46.726Z,1.40
2018-05-15T21:52:14.951Z,1.20
2018-05-15T21:54:44.142Z,1.73
2018-05-15T21:57:12.286Z,1.60
2018-05-15T21:59:40.636Z,1.42
2018-05-15T22:02:08.730Z,1.52
2018-05-15T22:04:36.913Z,1.62
2018-05-15T22:07:05.003Z,1.17
2018-05-15T22:09:33.194Z,1.33
2018-05-15T22:12:01.392Z,1.50
2018-05-15T22:14:29.598Z,1.33
2018-05-15T22:16:57.687Z,1.85
2018-05-15T22:19:25.883Z,1.58
2018-05-15T22:21:54.172Z,1.25
2018-05-15T22:24:22.480Z,1.48
2018-05-15T22:26:50.691Z,1.77
2018-05-15T22:29:18.973Z,1.50
2018-05-15T22:31:47.153Z,1.80
2018-05-15T22:34:15.295Z,1.35
2018-05-15T22:36:43.646Z,1.75
2018-05-15T22:39:11.847Z,1.30
2018-05-15T22:41:40.069Z,1.70
2018-05-15T22:44:08.344Z,1.50
2018-05-15T22:46:36.427Z,1.37
2018-05-15T22:49:04.610Z,1.55
2018-05-15T22:51:32.717Z,1.48
2018-05-15T22:54:00.904Z,1.50
2018-05-15T22:56:29.109Z,1.87
2018-05-15T22:58:57.300Z,1.75
2018-05-15T23:01:25.582Z,1.80
2018-05-15T23:03:53.794Z,1.40
2018-05-15T23:06:22.089Z,1.55
2018-05-15T23:08:50.374Z,2.00
2018-05-15T23:11:18.687Z,2.20
2018-05-15T23:13:46.973Z,1.70
2018-05-15T23:16:15.610Z,1.80
2018-05-15T23:18:43.771Z,1.35
2018-05-15T23:21:11.968Z,1.50
2018-05-15T23:23:40.867Z,1.40
2018-05-15T23:26:08.968Z,1.40
2018-05-15T23:28:37.049Z,1.40
2018-05-15T23:31:05.364Z,1.50
2018-05-15T23:33:33.551Z,1.52
2018-05-15T23:36:01.753Z,1.60
2018-05-15T23:38:29.846Z,2.10
2018-05-15T23:40:58.027Z,1.50
2018-05-15T23:43:26.226Z,1.35
2018-05-15T23:45:54.523Z,1.50
2018-05-15T23:48:22.611Z,1.40
2018-05-15T23:50:50.921Z,1.40
2018-05-15T23:53:19.124Z,1.60
2018-05-15T23:55:47.392Z,1.50
2018-05-15T23:58:15.449Z,1.95
